Time;durP1;ratioP1;P1;durP2;ratioP2;P2;SDS_P1;SDS_P2;PMS_P1;PMS_P2;Temp;Humidity;BMP_temperature;BMP_pressure;BME280_temperature;BME280_humidity;BME280_pressure;Samples;Min_cycle;Max_cycle;Signal;HPM_P1;HPM_P2
2023/12/06 00:00:13;;;;;;;2.40;0.90;;;9.10;72.80;;;;;;2340478;54;20941;-68
2023/12/06 00:02:40;;;;;;;3.78;1.25;;;9.10;72.70;;;;;;2339417;53;21017;-70
2023/12/06 00:05:10;;;;;;;2.87;1.00;;;9.10;72.70;;;;;;2339344;53;21983;-70
2023/12/06 00:07:40;;;;;;;3.53;1.00;;;9.10;72.70;;;;;;2584396;53;21635;-70
2023/12/06 00:10:07;;;;;;;2.55;0.90;;;9.10;72.70;;;;;;2340686;55;20937;-68
2023/12/06 00:12:33;;;;;;;2.65;1.05;;;9.10;72.70;;;;;;2585697;53;20957;-70
2023/12/06 00:14:59;;;;;;;3.25;0.98;;;9.10;72.80;;;;;;2586573;53;21352;-68
2023/12/06 00:17:28;;;;;;;4.70;1.23;;;9.10;72.70;;;;;;2339698;55;21004;-69
2023/12/06 00:19:55;;;;;;;5.55;1.70;;;9.10;73.00;;;;;;2336125;54;21540;-68
2023/12/06 00:22:23;;;;;;;3.03;0.85;;;9.10;72.70;;;;;;2562203;53;21000;-69
2023/12/06 00:24:53;;;;;;;2.00;0.80;;;9.10;72.70;;;;;;2340621;55;21224;-68
2023/12/06 00:27:20;;;;;;;2.42;0.80;;;9.10;72.70;;;;;;2585905;53;21020;-70
2023/12/06 00:29:48;;;;;;;2.90;1.05;;;9.10;72.70;;;;;;2586669;53;20933;-72
2023/12/06 00:32:15;;;;;;;2.55;0.80;;;9.10;72.80;;;;;;2325558;54;20936;-70
2023/12/06 00:34:41;;;;;;;2.12;0.70;;;9.10;72.80;;;;;;2332548;54;21437;-69
2023/12/06 00:37:07;;;;;;;3.20;1.48;;;9.10;72.80;;;;;;2340116;54;20996;-71
2023/12/06 00:39:34;;;;;;;2.50;0.80;;;9.10;72.80;;;;;;2340106;55;20968;-68
2023/12/06 00:42:01;;;;;;;3.15;0.90;;;9.10;72.80;;;;;;2586737;53;21000;-71
2023/12/06 00:44:28;;;;;;;2.28;0.98;;;9.10;72.70;;;;;;2586175;53;20957;-70
2023/12/06 00:46:56;;;;;;;3.22;1.08;;;9.10;72.80;;;;;;2340911;55;20968;-69
2023/12/06 00:49:22;;;;;;;2.67;1.30;;;9.10;72.80;;;;;;2341567;55;20932;-70
2023/12/06 00:51:49;;;;;;;3.62;1.08;;;9.10;72.70;;;;;;2587456;53;20936;-69
2023/12/06 00:54:16;;;;;;;4.32;1.00;;;9.10;72.60;;;;;;2587183;53;21378;-68
2023/12/06 00:56:42;;;;;;;2.85;1.00;;;9.00;72.60;;;;;;2339821;55;21845;-69
2023/12/06 00:59:12;;;;;;;3.33;1.10;;;9.00;72.60;;;;;;2340755;55;20948;-71
2023/12/06 01:01:38;;;;;;;2.47;1.00;;;9.00;72.60;;;;;;2340390;55;21327;-70
2023/12/06 01:04:05;;;;;;;2.95;1.00;;;9.00;72.60;;;;;;2586305;53;21454;-69
2023/12/06 01:06:32;;;;;;;3.17;0.80;;;9.00;72.60;;;;;;2585817;53;21056;-68
2023/12/06 01:08:59;;;;;;;1.83;0.88;;;9.00;72.60;;;;;;2586879;53;21403;-69
2023/12/06 01:11:25;;;;;;;1.92;0.90;;;9.00;72.70;;;;;;2339733;54;20944;-70
2023/12/06 01:13:52;;;;;;;2.20;0.90;;;9.10;72.80;;;;;;2337196;54;20952;-68
2023/12/06 01:16:19;;;;;;;2.87;0.90;;;9.00;72.70;;;;;;2340435;54;21181;-69
2023/12/06 01:18:47;;;;;;;2.35;0.80;;;9.00;72.70;;;;;;2340069;54;21548;-70
2023/12/06 01:21:13;;;;;;;1.87;0.80;;;9.00;72.80;;;;;;2340305;54;21034;-69
2023/12/06 01:23:40;;;;;;;3.15;1.12;;;9.00;72.80;;;;;;2339456;55;21105;-72
2023/12/06 01:26:06;;;;;;;3.00;0.80;;;9.00;72.80;;;;;;2585107;53;20945;-70
2023/12/06 01:28:33;;;;;;;2.12;0.80;;;9.00;72.80;;;;;;2339402;55;21069;-69
2023/12/06 01:30:59;;;;;;;2.10;0.82;;;9.00;72.80;;;;;;2341566;54;20940;-73
2023/12/06 01:33:26;;;;;;;3.08;0.90;;;9.00;72.80;;;;;;2583611;53;21030;-69
2023/12/06 01:35:53;;;;;;;2.00;0.90;;;9.00;72.80;;;;;;2336840;54;20949;-69
2023/12/06 01:38:19;;;;;;;4.25;1.08;;;9.00;72.80;;;;;;2341006;55;20936;-69
2023/12/06 01:40:46;;;;;;;2.75;0.90;;;9.00;72.80;;;;;;2586142;53;21445;-68
2023/12/06 01:43:12;;;;;;;1.98;0.70;;;9.00;72.80;;;;;;2339853;54;20952;-68
2023/12/06 01:45:41;;;;;;;3.05;0.90;;;9.00;72.80;;;;;;2585605;53;21914;-70
2023/12/06 01:48:07;;;;;;;2.35;0.75;;;9.00;72.80;;;;;;2587256;53;20952;-70
2023/12/06 01:50:34;;;;;;;2.47;1.20;;;9.00;72.90;;;;;;2585880;53;20957;-70
2023/12/06 01:53:01;;;;;;;3.30;0.93;;;9.00;72.90;;;;;;2336866;54;20975;-68
2023/12/06 01:55:28;;;;;;;2.85;0.80;;;9.00;72.90;;;;;;2547526;53;20914;-68
2023/12/06 01:57:54;;;;;;;3.85;1.00;;;9.00;72.90;;;;;;2301189;55;20982;-68
2023/12/06 02:00:20;;;;;;;3.35;0.90;;;9.00;72.90;;;;;;2309219;55;21340;-69
2023/12/06 02:02:47;;;;;;;2.03;0.82;;;9.00;72.90;;;;;;2546996;54;21443;-73
2023/12/06 02:05:13;;;;;;;2.65;0.90;;;9.00;72.90;;;;;;2547381;54;20961;-73
2023/12/06 02:07:39;;;;;;;3.28;0.95;;;9.00;72.80;;;;;;2545861;54;20997;-68
2023/12/06 02:10:07;;;;;;;3.58;0.95;;;9.00;72.80;;;;;;2547550;54;21024;-69
2023/12/06 02:12:33;;;;;;;3.10;0.85;;;9.00;72.90;;;;;;2307908;54;21426;-71
2023/12/06 02:15:00;;;;;;;2.10;0.68;;;9.00;72.90;;;;;;2309165;54;20958;-70
2023/12/06 02:17:27;;;;;;;2.20;0.70;;;9.00;72.90;;;;;;2510675;54;21015;-69
2023/12/06 02:19:54;;;;;;;2.78;1.10;;;9.00;72.90;;;;;;2553511;53;21210;-71
2023/12/06 02:22:21;;;;;;;4.30;1.17;;;9.00;72.90;;;;;;2307980;55;21411;-69
2023/12/06 02:24:49;;;;;;;2.10;0.70;;;9.00;73.00;;;;;;2307572;54;20949;-68
2023/12/06 02:27:15;;;;;;;2.83;0.85;;;9.00;72.90;;;;;;2547350;54;20914;-71
2023/12/06 02:29:42;;;;;;;2.17;1.08;;;9.00;73.00;;;;;;2308039;56;20933;-68
2023/12/06 02:32:08;;;;;;;1.75;0.80;;;9.00;72.90;;;;;;2306775;55;21354;-69
2023/12/06 02:34:34;;;;;;;2.20;0.90;;;9.00;72.90;;;;;;2317595;55;20943;-71
2023/12/06 02:37:16;;;;;;;2.50;0.85;;;9.00;72.90;;;;;;2335420;55;21255;-68
2023/12/06 02:39:42;;;;;;;2.57;1.07;;;9.00;72.80;;;;;;2334625;54;21130;-70
2023/12/06 02:42:09;;;;;;;2.42;0.90;;;9.00;72.90;;;;;;2311703;54;21009;-71
2023/12/06 02:44:35;;;;;;;2.75;0.77;;;9.00;72.90;;;;;;2307216;55;20950;-71
2023/12/06 02:47:02;;;;;;;1.95;0.70;;;9.00;72.90;;;;;;2308789;56;21001;-73
2023/12/06 02:49:28;;;;;;;3.67;0.93;;;9.00;73.00;;;;;;2311053;55;21584;-72
2023/12/06 02:51:54;;;;;;;2.33;0.80;;;9.00;73.00;;;;;;2283923;55;21122;-72
2023/12/06 02:54:21;;;;;;;1.67;0.75;;;9.00;73.00;;;;;;2547022;53;21011;-70
2023/12/06 02:56:47;;;;;;;2.37;0.70;;;9.00;73.00;;;;;;2307998;55;20959;-68
2023/12/06 02:59:13;;;;;;;2.60;0.90;;;9.00;73.00;;;;;;2308115;55;20955;-71
2023/12/06 03:01:46;;;;;;;2.97;0.95;;;9.00;73.10;;;;;;2303701;54;20991;-70
2023/12/06 03:04:12;;;;;;;;;;;9.00;72.90;;;;;;2312561;55;20979;-71
2023/12/06 03:06:38;;;;;;;2.03;0.70;;;9.00;72.40;;;;;;2308275;55;20123;-69
2023/12/06 03:09:05;;;;;;;1.65;0.68;;;9.00;72.80;;;;;;2308861;55;20932;-71
2023/12/06 03:11:31;;;;;;;3.05;1.05;;;9.00;72.90;;;;;;2308272;55;21075;-70
2023/12/06 03:13:58;;;;;;;2.92;0.77;;;9.00;72.90;;;;;;2310496;55;21060;-69
2023/12/06 03:16:24;;;;;;;2.00;0.70;;;9.00;73.00;;;;;;2538903;53;20971;-70
2023/12/06 03:18:51;;;;;;;1.58;0.70;;;9.00;73.10;;;;;;2308737;55;21414;-68
2023/12/06 03:21:17;;;;;;;3.40;0.93;;;9.00;73.10;;;;;;2308550;55;20956;-72
2023/12/06 03:23:44;;;;;;;1.87;0.70;;;9.00;73.20;;;;;;2546780;53;21738;-71
2023/12/06 03:26:10;;;;;;;1.98;0.80;;;9.00;73.20;;;;;;2309228;55;20968;-72
2023/12/06 03:28:36;;;;;;;4.05;0.90;;;9.00;73.10;;;;;;2308626;55;20959;-69
2023/12/06 03:31:03;;;;;;;2.72;0.80;;;9.00;73.20;;;;;;2547921;54;20956;-69
2023/12/06 03:33:29;;;;;;;2.80;0.80;;;9.00;73.10;;;;;;2308612;55;21504;-71
2023/12/06 03:35:55;;;;;;;4.20;1.00;;;9.00;73.10;;;;;;2547320;53;20985;-71
2023/12/06 03:38:22;;;;;;;2.28;0.80;;;9.00;73.10;;;;;;2547876;53;20953;-73
2023/12/06 03:40:51;;;;;;;3.03;1.10;;;9.00;73.00;;;;;;2546457;54;20981;-70
2023/12/06 03:44:12;;;;;;;2.33;0.80;;;9.00;73.10;;;;;;2548156;54;20996;-70
2023/12/06 03:46:38;;;;;;;2.92;0.60;;;9.10;73.10;;;;;;2547528;54;20981;-69
2023/12/06 03:49:05;;;;;;;3.28;1.00;;;9.00;73.10;;;;;;2309307;55;21520;-70
2023/12/06 03:51:31;;;;;;;3.20;0.95;;;9.00;73.10;;;;;;2308939;55;20989;-70
2023/12/06 03:53:59;;;;;;;1.95;0.73;;;9.00;73.10;;;;;;2309308;55;21406;-70
2023/12/06 03:56:25;;;;;;;3.90;0.98;;;9.00;73.10;;;;;;2308775;55;20965;-70
2023/12/06 03:58:54;;;;;;;3.42;1.12;;;9.00;73.10;;;;;;2305366;54;21216;-68
2023/12/06 04:01:20;;;;;;;4.00;1.30;;;9.00;73.10;;;;;;2307816;54;20909;-70
2023/12/06 04:03:46;;;;;;;4.45;0.90;;;9.00;73.10;;;;;;2547480;53;20975;-69
2023/12/06 04:06:13;;;;;;;3.03;1.10;;;9.00;73.10;;;;;;2312642;54;21841;-69
2023/12/06 04:08:40;;;;;;;2.65;0.93;;;9.00;73.20;;;;;;2296069;55;21524;-69
2023/12/06 04:11:08;;;;;;;3.67;1.08;;;9.00;73.20;;;;;;2547419;54;20945;-70
2023/12/06 04:13:34;;;;;;;2.95;1.05;;;9.00;73.10;;;;;;2553706;53;20933;-71
2023/12/06 04:16:00;;;;;;;2.65;0.85;;;9.00;73.10;;;;;;2547108;54;21619;-70
2023/12/06 04:18:27;;;;;;;2.62;1.00;;;9.00;73.10;;;;;;2576933;53;21015;-72
2023/12/06 04:20:53;;;;;;;2.92;1.23;;;9.00;73.10;;;;;;2550267;53;21001;-70
2023/12/06 04:23:20;;;;;;;2.08;1.00;;;9.00;73.10;;;;;;2539038;53;21036;-72
2023/12/06 04:25:47;;;;;;;3.08;1.12;;;8.90;73.10;;;;;;2287580;55;21769;-69
2023/12/06 04:28:14;;;;;;;4.20;1.20;;;9.00;73.20;;;;;;2546436;53;20931;-70
2023/12/06 04:30:42;;;;;;;3.17;1.00;;;8.90;73.20;;;;;;2578932;53;20923;-71
2023/12/06 04:33:09;;;;;;;2.58;0.98;;;8.90;73.20;;;;;;2335564;55;20958;-70
2023/12/06 04:35:35;;;;;;;3.97;1.12;;;8.90;73.20;;;;;;2533364;53;21419;-70
2023/12/06 04:38:01;;;;;;;2.65;1.00;;;8.90;73.20;;;;;;2312430;54;20984;-72
2023/12/06 04:40:28;;;;;;;4.22;1.48;;;8.90;73.20;;;;;;2308109;54;21001;-72
2023/12/06 04:43:03;;;;;;;5.80;1.50;;;8.90;73.30;;;;;;2547194;53;21258;-72
2023/12/06 04:45:29;;;;;;;4.22;1.70;;;8.90;73.10;;;;;;2547028;53;20978;-71
2023/12/06 04:47:58;;;;;;;3.25;1.02;;;8.90;73.20;;;;;;2308833;55;21040;-69
2023/12/06 04:50:25;;;;;;;3.80;1.12;;;8.90;73.20;;;;;;2307909;55;21465;-73
2023/12/06 04:52:51;;;;;;;3.37;1.40;;;8.90;73.30;;;;;;2522265;53;21437;-70
2023/12/06 04:55:18;;;;;;;2.92;1.10;;;8.90;73.20;;;;;;2547617;53;21389;-71
2023/12/06 04:57:44;;;;;;;3.45;1.33;;;9.00;73.30;;;;;;2309012;54;20923;-70
2023/12/06 05:00:11;;;;;;;3.65;1.50;;;8.90;73.20;;;;;;2548002;53;21430;-69
2023/12/06 05:02:38;;;;;;;2.87;1.20;;;8.90;73.30;;;;;;2547830;53;20974;-70
2023/12/06 05:05:04;;;;;;;3.80;1.20;;;8.90;73.30;;;;;;2547197;54;21241;-69
2023/12/06 05:07:31;;;;;;;4.22;1.35;;;8.90;73.30;;;;;;2547660;53;21013;-70
2023/12/06 05:09:57;;;;;;;3.60;1.15;;;8.90;73.30;;;;;;2308679;55;21465;-72
2023/12/06 05:12:23;;;;;;;6.82;1.65;;;8.90;73.30;;;;;;2308112;55;21502;-70
2023/12/06 05:14:50;;;;;;;6.03;1.67;;;9.00;74.00;;;;;;2308208;54;20929;-72
2023/12/06 05:17:16;;;;;;;3.40;1.48;;;8.90;73.30;;;;;;2308972;55;20953;-69
2023/12/06 05:19:44;;;;;;;5.37;1.90;;;8.90;73.30;;;;;;2544952;53;21122;-73
2023/12/06 05:22:11;;;;;;;3.87;1.50;;;8.90;73.30;;;;;;2574015;53;21046;-70
2023/12/06 05:28:05;;;;;;;2.92;1.20;;;9.00;73.30;;;;;;2575687;53;20998;-72
2023/12/06 05:30:31;;;;;;;4.68;1.20;;;9.00;73.50;;;;;;2574950;53;20953;-70
2023/12/06 05:32:58;;;;;;;3.80;1.40;;;8.90;73.40;;;;;;2575284;53;20981;-71
2023/12/06 05:35:24;;;;;;;4.25;1.20;;;9.00;73.50;;;;;;2330727;54;21010;-71
2023/12/06 05:37:52;;;;;;;3.05;1.30;;;8.90;73.40;;;;;;2331501;55;20926;-73
2023/12/06 05:40:20;;;;;;;4.03;1.40;;;9.00;73.60;;;;;;2575800;53;21390;-70
2023/12/06 05:42:47;;;;;;;5.47;1.40;;;9.00;73.60;;;;;;2330175;55;20942;-71
2023/12/06 05:45:14;;;;;;;3.37;1.20;;;9.00;73.50;;;;;;2575055;53;21021;-71
2023/12/06 05:47:40;;;;;;;5.28;1.23;;;9.00;73.50;;;;;;2330643;54;20957;-69
2023/12/06 05:50:57;;;;;;;4.12;1.40;;;9.00;73.60;;;;;;2330976;55;21025;-70
2023/12/06 05:53:23;;;;;;;3.08;1.08;;;9.00;73.50;;;;;;2575303;53;21901;-71
2023/12/06 05:55:54;;;;;;;3.37;1.33;;;9.00;73.70;;;;;;2331785;54;20955;-69
2023/12/06 05:58:20;;;;;;;2.45;1.20;;;9.00;73.70;;;;;;2331735;55;21459;-72
2023/12/06 06:00:47;;;;;;;3.37;1.20;;;9.00;73.60;;;;;;2332136;55;21768;-70
2023/12/06 06:03:13;;;;;;;3.40;1.27;;;9.00;73.50;;;;;;2331325;55;21039;-70
2023/12/06 06:05:40;;;;;;;4.12;1.40;;;9.00;73.50;;;;;;2575555;53;21722;-70
2023/12/06 06:08:06;;;;;;;2.90;1.50;;;9.00;73.50;;;;;;2331682;54;21729;-69
2023/12/06 06:10:33;;;;;;;3.83;1.55;;;9.00;73.50;;;;;;2331776;55;20962;-72
2023/12/06 06:13:00;;;;;;;6.70;3.20;;;9.00;73.40;;;;;;2575267;53;20970;-70
2023/12/06 06:15:26;;;;;;;5.55;2.45;;;9.00;73.40;;;;;;2331126;54;21428;-73
2023/12/06 06:17:53;;;;;;;5.35;1.90;;;9.00;73.40;;;;;;2575799;53;21562;-70
2023/12/06 06:20:20;;;;;;;4.60;1.67;;;9.00;73.40;;;;;;2575321;53;20938;-72
2023/12/06 06:22:47;;;;;;;3.97;1.50;;;9.00;73.30;;;;;;2575527;53;20942;-69
2023/12/06 06:25:13;;;;;;;4.05;1.50;;;9.00;73.30;;;;;;2545945;53;21976;-71
2023/12/06 06:27:41;;;;;;;3.08;1.30;;;9.00;73.30;;;;;;2329337;54;20946;-71
2023/12/06 06:30:10;;;;;;;3.08;1.40;;;9.00;73.30;;;;;;2331213;55;20955;-71
2023/12/06 06:32:36;;;;;;;4.12;1.35;;;9.00;73.30;;;;;;2575619;53;21030;-70
2023/12/06 06:35:03;;;;;;;3.50;1.42;;;9.00;73.30;;;;;;2331009;55;21062;-71
2023/12/06 06:37:29;;;;;;;4.07;1.30;;;9.00;73.30;;;;;;2575459;53;21038;-72
2023/12/06 06:39:56;;;;;;;3.97;1.27;;;9.00;73.30;;;;;;2575263;53;21527;-70
2023/12/06 06:42:23;;;;;;;3.35;1.58;;;9.00;73.30;;;;;;2575080;53;21006;-70
2023/12/06 06:44:51;;;;;;;4.68;1.65;;;9.00;73.30;;;;;;2575738;53;21042;-71
2023/12/06 06:47:18;;;;;;;4.45;1.70;;;9.00;73.30;;;;;;2552288;53;20978;-69
2023/12/06 06:49:45;;;;;;;4.55;1.55;;;9.00;73.30;;;;;;2565622;53;21033;-70
2023/12/06 06:52:14;;;;;;;3.65;1.40;;;9.00;73.30;;;;;;2330748;55;21029;-70
2023/12/06 06:54:41;;;;;;;4.60;1.87;;;9.00;73.30;;;;;;2309940;54;20943;-73
2023/12/06 06:57:07;;;;;;;6.07;2.33;;;9.00;73.30;;;;;;2329302;54;20962;-72
2023/12/06 06:59:33;;;;;;;5.18;2.30;;;9.00;73.30;;;;;;2536093;54;21017;-70
2023/12/06 07:02:00;;;;;;;3.70;1.85;;;9.00;73.20;;;;;;2308848;54;21003;-70
2023/12/06 07:04:26;;;;;;;4.65;1.90;;;9.00;73.20;;;;;;2551833;53;20972;-70
2023/12/06 07:06:52;;;;;;;4.37;2.00;;;8.90;73.20;;;;;;2552137;53;20962;-72
2023/12/06 07:09:19;;;;;;;4.32;2.10;;;8.90;73.20;;;;;;2331567;55;20938;-71
2023/12/06 07:11:47;;;;;;;4.18;1.75;;;8.90;73.20;;;;;;2575535;53;20975;-71
2023/12/06 07:14:13;;;;;;;4.03;1.55;;;8.90;73.20;;;;;;2330434;55;21423;-69
2023/12/06 07:16:39;;;;;;;5.15;1.80;;;8.90;73.20;;;;;;2332110;55;21746;-69
2023/12/06 07:19:06;;;;;;;4.57;1.70;;;8.90;73.20;;;;;;2330941;55;21546;-70
2023/12/06 07:21:33;;;;;;;4.72;1.50;;;8.90;73.20;;;;;;2574427;53;20942;-73
2023/12/06 07:24:03;;;;;;;3.55;1.52;;;8.90;73.20;;;;;;2574284;53;21140;-70
2023/12/06 07:26:30;;;;;;;3.85;1.37;;;8.90;73.20;;;;;;2572448;53;20950;-70
2023/12/06 07:28:57;;;;;;;3.72;1.37;;;8.90;73.20;;;;;;2312037;54;21019;-70
2023/12/06 07:31:23;;;;;;;3.00;1.50;;;8.90;73.30;;;;;;2565838;53;21472;-72
2023/12/06 07:33:52;;;;;;;3.65;1.37;;;8.90;73.40;;;;;;2573704;53;20998;-71
2023/12/06 07:36:21;;;;;;;3.70;1.42;;;8.90;74.20;;;;;;2330955;55;21423;-71
2023/12/06 07:38:48;;;;;;;2.80;1.35;;;8.90;73.50;;;;;;2561898;53;21075;-70
2023/12/06 07:41:15;;;;;;;5.05;1.92;;;8.90;73.50;;;;;;2556283;53;21993;-72
2023/12/06 07:43:41;;;;;;;6.93;2.72;;;8.90;73.30;;;;;;2575556;53;21518;-72
2023/12/06 07:46:08;;;;;;;5.10;2.00;;;8.90;73.20;;;;;;2331477;55;20963;-69
2023/12/06 07:48:34;;;;;;;4.55;1.62;;;8.90;73.20;;;;;;2574641;53;20958;-72
2023/12/06 07:51:01;;;;;;;4.22;1.80;;;8.90;73.30;;;;;;2574458;53;20938;-70
2023/12/06 07:53:28;;;;;;;4.37;2.03;;;8.90;73.30;;;;;;2575841;53;21062;-73
2023/12/06 07:55:55;;;;;;;3.87;1.83;;;8.90;73.40;;;;;;2575644;53;21958;-70
2023/12/06 07:58:25;;;;;;;3.30;1.50;;;8.90;73.40;;;;;;2330000;55;20923;-71
2023/12/06 08:00:51;;;;;;;3.95;1.60;;;8.90;73.40;;;;;;2331825;55;20970;-69
2023/12/06 08:03:21;;;;;;;3.83;1.52;;;8.90;73.50;;;;;;2573915;53;20943;-72
2023/12/06 08:05:47;;;;;;;3.70;1.70;;;9.00;73.60;;;;;;2331048;55;20931;-69
2023/12/06 08:08:16;;;;;;;3.72;1.83;;;9.00;73.70;;;;;;2574348;53;21090;-70
2023/12/06 08:10:44;;;;;;;3.83;1.70;;;9.00;73.80;;;;;;2575086;53;22068;-71
2023/12/06 08:13:10;;;;;;;5.22;1.92;;;9.00;73.70;;;;;;2332830;55;21005;-70
2023/12/06 08:15:37;;;;;;;3.67;1.73;;;9.00;73.60;;;;;;2306820;54;20947;-70
2023/12/06 08:18:03;;;;;;;5.65;2.80;;;9.00;73.60;;;;;;2332598;55;20934;-69
2023/12/06 08:20:29;;;;;;;8.35;3.60;;;9.00;73.60;;;;;;2569960;53;21003;-72
2023/12/06 08:22:57;;;;;;;4.90;2.87;;;9.00;73.60;;;;;;2544465;53;20978;-70
2023/12/06 08:25:23;;;;;;;4.85;3.12;;;9.00;73.70;;;;;;2574336;53;21480;-73
2023/12/06 08:27:51;;;;;;;6.05;3.72;;;9.10;73.90;;;;;;2331900;55;20976;-70
2023/12/06 08:30:22;;;;;;;4.25;2.60;;;9.10;73.90;;;;;;2331324;55;22114;-70
2023/12/06 08:32:48;;;;;;;4.85;2.70;;;9.10;73.80;;;;;;2331373;55;21005;-70
2023/12/06 08:35:15;;;;;;;5.47;2.10;;;9.10;73.80;;;;;;2571699;53;20959;-71
2023/12/06 08:37:42;;;;;;;4.72;2.17;;;9.10;73.80;;;;;;2536143;54;21337;-70
2023/12/06 08:40:10;;;;;;;5.37;2.65;;;9.10;73.80;;;;;;2564477;53;21005;-71
2023/12/06 08:42:36;;;;;;;5.50;3.30;;;9.10;73.80;;;;;;2330644;55;21027;-72
2023/12/06 08:45:03;;;;;;;8.32;4.12;;;9.20;73.80;;;;;;2575209;53;20974;-72
2023/12/06 08:47:29;;;;;;;6.00;3.62;;;9.20;73.90;;;;;;2331023;55;20990;-70
2023/12/06 08:49:56;;;;;;;6.40;3.08;;;9.20;73.90;;;;;;2308746;55;21951;-71
2023/12/06 08:52:22;;;;;;;6.87;3.22;;;9.20;73.80;;;;;;2308221;55;20976;-73
2023/12/06 08:54:49;;;;;;;4.80;2.55;;;9.20;73.80;;;;;;2547514;54;21595;-70
2023/12/06 08:57:15;;;;;;;5.40;2.60;;;9.20;73.80;;;;;;2546264;54;20933;-69
2023/12/06 08:59:41;;;;;;;6.03;3.20;;;9.20;73.80;;;;;;2308199;55;21776;-72
2023/12/06 09:02:19;;;;;;;5.20;2.67;;;9.30;74.00;;;;;;2548128;54;21490;-70
2023/12/06 09:04:47;;;;;;;6.70;2.50;;;9.30;73.80;;;;;;2308617;55;21786;-70
2023/12/06 09:07:13;;;;;;;5.05;2.47;;;9.40;74.10;;;;;;2308429;55;21653;-72
2023/12/06 09:09:40;;;;;;;5.37;2.45;;;9.30;73.90;;;;;;2308168;55;21748;-70
2023/12/06 09:12:07;;;;;;;4.22;2.33;;;9.30;73.80;;;;;;2547603;54;21000;-70
2023/12/06 09:14:34;;;;;;;4.10;2.17;;;9.30;73.80;;;;;;2547283;54;21312;-70
2023/12/06 09:17:00;;;;;;;4.00;2.08;;;9.30;73.90;;;;;;2309030;56;20930;-71
2023/12/06 09:19:26;;;;;;;7.37;3.25;;;9.40;74.00;;;;;;2309086;55;21421;-69
2023/12/06 09:21:53;;;;;;;5.93;3.15;;;9.40;74.00;;;;;;2308199;54;21031;-70
2023/12/06 09:24:19;;;;;;;11.60;6.10;;;9.40;74.00;;;;;;2325358;54;20969;-70
2023/12/06 09:26:46;;;;;;;12.30;7.25;;;9.40;73.90;;;;;;2556995;53;21917;-70
2023/12/06 09:29:17;;;;;;;11.23;6.18;;;9.40;73.80;;;;;;2551009;53;20976;-70
2023/12/06 09:31:43;;;;;;;9.30;5.40;;;9.40;73.80;;;;;;2308635;55;21013;-70
2023/12/06 09:34:10;;;;;;;6.50;3.75;;;9.40;73.70;;;;;;2308624;55;21045;-70
2023/12/06 09:36:37;;;;;;;8.57;4.62;;;9.40;73.70;;;;;;2313555;55;21393;-70
2023/12/06 09:39:06;;;;;;;6.62;3.45;;;9.50;73.80;;;;;;2555440;53;20920;-71
2023/12/06 09:41:33;;;;;;;6.53;3.67;;;9.50;73.90;;;;;;2308646;54;21033;-73
2023/12/06 09:43:59;;;;;;;9.65;3.53;;;9.50;73.90;;;;;;2321109;54;21067;-69
2023/12/06 09:46:26;;;;;;;5.62;3.10;;;9.50;73.90;;;;;;2340009;54;21355;-71
2023/12/06 09:48:52;;;;;;;5.85;3.17;;;9.50;74.00;;;;;;2586902;53;20968;-71
2023/12/06 09:51:20;;;;;;;6.32;3.25;;;9.50;74.10;;;;;;2586478;53;20945;-70
2023/12/06 09:53:46;;;;;;;5.72;3.05;;;9.50;74.10;;;;;;2340456;54;21368;-71
2023/12/06 09:56:16;;;;;;;5.50;3.08;;;9.60;74.10;;;;;;2586705;53;21996;-69
2023/12/06 09:59:16;;;;;;;5.90;2.92;;;9.60;74.60;;;;;;2340357;54;21746;-69
2023/12/06 10:01:42;;;;;;;4.68;2.70;;;9.60;73.60;;;;;;2586772;53;20936;-71
2023/12/06 10:04:10;;;;;;;10.70;3.53;;;9.60;73.80;;;;;;2586733;53;21024;-69
2023/12/06 10:06:37;;;;;;;7.00;5.25;;;9.60;73.90;;;;;;2340018;54;21048;-69
2023/12/06 10:09:10;;;;;;;7.72;5.12;;;9.60;74.00;;;;;;2586682;53;21476;-69
2023/12/06 10:12:08;;;;;;;6.90;4.50;;;9.70;74.10;;;;;;2340324;55;20941;-70
2023/12/06 10:14:34;;;;;;;5.90;3.80;;;9.70;73.90;;;;;;2586191;53;21059;-69
2023/12/06 10:17:01;;;;;;;7.20;3.60;;;9.70;74.20;;;;;;2586364;53;21012;-71
2023/12/06 10:19:29;;;;;;;6.20;3.90;;;9.70;74.20;;;;;;2338404;55;20936;-71
2023/12/06 10:21:58;;;;;;;4.82;3.10;;;9.70;74.20;;;;;;2587015;53;20972;-71
2023/12/06 10:24:24;;;;;;;4.62;2.70;;;9.80;74.30;;;;;;2586649;53;20957;-70
2023/12/06 10:27:03;;;;;;;6.43;3.40;;;9.80;74.40;;;;;;2334839;55;21588;-70
2023/12/06 10:29:32;;;;;;;5.20;3.22;;;9.80;74.20;;;;;;2325421;54;21076;-70
2023/12/06 10:31:59;;;;;;;7.32;3.10;;;9.80;74.20;;;;;;2587173;53;20913;-72
2023/12/06 10:34:27;;;;;;;6.50;3.60;;;9.80;74.10;;;;;;2338925;54;20949;-70
2023/12/06 10:36:53;;;;;;;5.62;3.50;;;9.90;74.20;;;;;;2339841;55;20956;-71
2023/12/06 10:39:19;;;;;;;5.57;3.33;;;9.90;74.10;;;;;;2340071;54;20929;-71
2023/12/06 10:41:47;;;;;;;5.93;3.42;;;9.90;74.10;;;;;;2586579;53;21914;-72
2023/12/06 10:44:13;;;;;;;5.35;3.35;;;9.90;74.10;;;;;;2340537;55;20956;-70
2023/12/06 10:46:39;;;;;;;5.82;3.50;;;9.90;74.10;;;;;;2586735;53;21434;-72
2023/12/06 10:49:06;;;;;;;6.95;3.45;;;10.00;72.90;;;;;;2586097;53;21340;-71
2023/12/06 10:51:32;;;;;;;4.97;3.28;;;10.00;72.80;;;;;;2579871;53;21935;-72
2023/12/06 10:53:59;;;;;;;5.43;3.35;;;10.00;72.80;;;;;;2560486;53;21047;-72
2023/12/06 10:56:29;;;;;;;4.87;3.00;;;10.00;72.80;;;;;;2586201;53;21755;-71
2023/12/06 10:58:56;;;;;;;6.22;3.25;;;10.00;72.70;;;;;;2340486;55;21024;-70
2023/12/06 11:01:27;;;;;;;4.78;2.70;;;10.00;72.70;;;;;;2340630;55;20948;-68
2023/12/06 11:04:02;;;;;;;5.32;2.40;;;10.10;72.80;;;;;;2340946;55;20968;-71
2023/12/06 11:06:58;;;;;;;4.50;2.40;;;10.10;72.70;;;;;;2340198;54;21768;-70
2023/12/06 11:15:08;;;;;;;5.22;2.97;;;10.10;72.70;;;;;;2317702;54;21363;-72
2023/12/06 11:18:00;;;;;;;13.10;6.70;;;10.10;71.90;;;;;;2308225;55;20964;-70
2023/12/06 11:20:27;;;;;;;11.52;6.07;;;10.20;72.10;;;;;;2308370;55;21411;-72
2023/12/06 11:22:56;;;;;;;10.40;5.18;;;10.10;72.20;;;;;;2547186;54;20926;-72
2023/12/06 11:25:23;;;;;;;7.03;4.03;;;10.10;72.30;;;;;;2308462;55;21005;-70
2023/12/06 11:27:50;;;;;;;8.43;5.07;;;10.10;72.30;;;;;;2541888;54;20963;-70
2023/12/06 11:30:17;;;;;;;6.70;4.07;;;10.10;72.40;;;;;;2542964;54;21056;-72
2023/12/06 11:32:43;;;;;;;7.35;4.37;;;10.10;72.50;;;;;;2308263;55;20925;-69
2023/12/06 11:35:10;;;;;;;6.47;3.42;;;10.10;72.60;;;;;;2308424;55;20937;-70
2023/12/06 11:37:37;;;;;;;6.72;3.85;;;10.10;72.60;;;;;;2547480;54;20985;-71
2023/12/06 11:40:18;;;;;;;6.18;3.90;;;10.10;72.70;;;;;;2548120;53;20947;-72
2023/12/06 11:42:57;;;;;;;9.05;4.93;;;10.10;72.40;;;;;;2308571;55;21770;-71
2023/12/06 11:45:36;;;;;;;7.20;3.65;;;10.20;72.40;;;;;;2547244;53;21878;-69
2023/12/06 11:48:05;;;;;;;6.37;3.20;;;10.20;72.40;;;;;;2309186;55;20967;-70
2023/12/06 11:50:44;;;;;;;6.15;3.67;;;10.20;72.60;;;;;;2307667;55;21020;-72
2023/12/06 11:53:16;;;;;;;6.75;3.97;;;10.20;72.60;;;;;;2309067;54;20939;-72
2023/12/06 11:55:42;;;;;;;5.55;3.58;;;10.20;72.60;;;;;;2308528;55;21477;-72
2023/12/06 11:58:16;;;;;;;5.68;3.33;;;10.20;72.60;;;;;;2548020;53;20936;-70
2023/12/06 12:00:42;;;;;;;5.60;3.15;;;10.00;72.40;;;;;;2308396;54;21003;-72
2023/12/06 12:03:12;;;;;;;5.65;3.62;;;10.20;72.40;;;;;;2547060;53;20952;-71
2023/12/06 12:05:40;;;;;;;5.93;3.80;;;10.20;72.30;;;;;;2547179;53;21013;-70
2023/12/06 12:08:12;;;;;;;6.65;3.90;;;10.20;72.20;;;;;;2569491;53;20942;-71
2023/12/06 12:10:42;;;;;;;5.32;3.47;;;10.20;72.10;;;;;;2544580;53;21446;-72
2023/12/06 12:13:24;;;;;;;7.80;4.97;;;10.20;72.20;;;;;;2317956;55;21011;-70
2023/12/06 12:16:01;;;;;;;7.32;5.32;;;10.30;71.90;;;;;;2328274;55;21575;-71
2023/12/06 12:18:28;;;;;;;6.68;4.60;;;10.20;71.80;;;;;;2553644;53;21006;-70
2023/12/06 12:20:55;;;;;;;7.37;4.85;;;10.20;71.80;;;;;;2575877;53;20998;-71
2023/12/06 12:23:22;;;;;;;7.47;4.15;;;10.20;72.60;;;;;;2575429;53;20970;-72
2023/12/06 12:25:51;;;;;;;6.47;4.22;;;10.20;71.80;;;;;;2575711;53;21027;-71
2023/12/06 12:28:21;;;;;;;5.62;3.87;;;10.20;71.80;;;;;;2331428;55;21463;-72
2023/12/06 12:32:10;;;;;;;5.72;3.60;;;10.20;71.70;;;;;;2551526;53;20971;-71
2023/12/06 12:34:37;;;;;;;6.97;4.03;;;10.20;70.90;;;;;;2330644;55;20990;-69
2023/12/06 12:37:03;;;;;;;5.32;3.47;;;10.20;71.70;;;;;;2332207;55;20954;-69
2023/12/06 12:39:30;;;;;;;10.27;6.78;;;10.20;71.90;;;;;;2574778;53;21023;-71
2023/12/06 12:41:59;;;;;;;13.98;8.50;;;10.20;71.90;;;;;;2331156;55;20989;-68
2023/12/06 12:44:25;;;;;;;17.95;10.90;;;10.20;71.90;;;;;;2331579;54;21436;-69
2023/12/06 12:46:52;;;;;;;15.25;10.00;;;10.20;72.00;;;;;;2313673;54;20935;-69
2023/12/06 12:49:21;;;;;;;18.25;11.75;;;10.20;72.00;;;;;;2568510;53;21490;-70
2023/12/06 12:51:47;;;;;;;15.40;9.45;;;10.20;72.10;;;;;;2331222;55;20949;-69
2023/12/06 12:54:16;;;;;;;11.32;7.68;;;10.20;72.10;;;;;;2331769;54;21039;-70
2023/12/06 12:56:43;;;;;;;10.65;7.32;;;10.20;72.10;;;;;;2331422;55;21863;-72
2023/12/06 12:59:36;;;;;;;9.50;6.22;;;10.20;72.10;;;;;;2576001;53;21791;-70
2023/12/06 13:02:03;;;;;;;8.07;5.45;;;10.30;71.80;;;;;;2332023;55;21519;-69
2023/12/06 13:04:29;;;;;;;10.93;6.55;;;10.20;71.90;;;;;;2574277;53;21030;-71
2023/12/06 13:06:56;;;;;;;8.60;5.60;;;10.20;71.80;;;;;;2331181;55;20974;-70
2023/12/06 13:09:22;;;;;;;7.37;4.70;;;10.20;71.80;;;;;;2331245;55;21296;-70